sensor_id;sensor_type;location;lat;lon;timestamp;noise_LAeq;noise_LA_min;noise_LA_max;noise_LA01;noise_LA95
81666;Laerm;71083;51.796;10.952;2023-07-30T00:00:57;55.76;29.64;69.34;;
81666;Laerm;71083;51.796;10.952;2023-07-30T00:03:22;64.38;29.58;81.34;;
81666;Laerm;71083;51.796;10.952;2023-07-30T00:05:51;42.67;28.99;60.89;;
81666;Laerm;71083;51.796;10.952;2023-07-30T00:08:17;57.20;30.58;72.80;;
81666;Laerm;71083;51.796;10.952;2023-07-30T00:10:42;59.69;28.96;74.17;;
81666;Laerm;71083;51.796;10.952;2023-07-30T00:13:07;59.24;29.58;71.51;;
81666;Laerm;71083;51.796;10.952;2023-07-30T00:15:33;52.30;29.81;69.43;;
81666;Laerm;71083;51.796;10.952;2023-07-30T00:17:58;55.75;30.21;73.32;;
81666;Laerm;71083;51.796;10.952;2023-07-30T00:20:23;40.10;30.10;51.77;;
81666;Laerm;71083;51.796;10.952;2023-07-30T00:22:49;57.04;29.35;71.29;;
81666;Laerm;71083;51.796;10.952;2023-07-30T00:25:14;53.62;30.45;69.22;;
81666;Laerm;71083;51.796;10.952;2023-07-30T00:27:39;31.20;28.84;37.02;;
81666;Laerm;71083;51.796;10.952;2023-07-30T00:30:05;54.20;28.75;69.71;;
81666;Laerm;71083;51.796;10.952;2023-07-30T00:32:31;60.02;30.15;73.00;;
81666;Laerm;71083;51.796;10.952;2023-07-30T00:34:56;55.57;28.86;74.63;;
81666;Laerm;71083;51.796;10.952;2023-07-30T00:37:21;46.69;29.35;60.31;;
81666;Laerm;71083;51.796;10.952;2023-07-30T00:39:47;62.83;34.87;75.89;;
81666;Laerm;71083;51.796;10.952;2023-07-30T00:42:12;55.42;29.62;72.17;;
81666;Laerm;71083;51.796;10.952;2023-07-30T00:44:37;56.48;30.12;70.80;;
81666;Laerm;71083;51.796;10.952;2023-07-30T00:47:03;34.16;29.10;46.21;;
81666;Laerm;71083;51.796;10.952;2023-07-30T00:49:28;54.77;29.67;70.11;;
81666;Laerm;71083;51.796;10.952;2023-07-30T00:51:54;57.59;29.89;73.14;;
81666;Laerm;71083;51.796;10.952;2023-07-30T00:54:21;57.35;28.97;73.56;;
81666;Laerm;71083;51.796;10.952;2023-07-30T00:56:48;30.22;28.93;36.18;;
81666;Laerm;71083;51.796;10.952;2023-07-30T00:59:15;56.31;29.43;74.27;;
81666;Laerm;71083;51.796;10.952;2023-07-30T01:01:40;53.25;29.06;69.15;;
81666;Laerm;71083;51.796;10.952;2023-07-30T01:04:07;33.93;28.54;45.78;;
81666;Laerm;71083;51.796;10.952;2023-07-30T01:06:32;60.64;29.35;76.75;;
81666;Laerm;71083;51.796;10.952;2023-07-30T01:08:58;57.61;31.64;71.22;;
81666;Laerm;71083;51.796;10.952;2023-07-30T01:11:23;32.53;29.83;36.62;;
81666;Laerm;71083;51.796;10.952;2023-07-30T01:13:48;52.14;29.58;68.18;;
81666;Laerm;71083;51.796;10.952;2023-07-30T01:16:14;48.90;29.43;65.17;;
81666;Laerm;71083;51.796;10.952;2023-07-30T01:18:40;56.90;30.48;71.88;;
81666;Laerm;71083;51.796;10.952;2023-07-30T01:21:05;47.23;31.11;61.88;;
81666;Laerm;71083;51.796;10.952;2023-07-30T01:23:30;54.10;28.78;71.43;;
81666;Laerm;71083;51.796;10.952;2023-07-30T01:26:00;56.65;28.57;75.48;;
81666;Laerm;71083;51.796;10.952;2023-07-30T01:28:27;57.32;30.32;72.02;;
81666;Laerm;71083;51.796;10.952;2023-07-30T01:30:54;53.16;31.09;68.81;;
81666;Laerm;71083;51.796;10.952;2023-07-30T01:33:20;53.06;29.23;68.90;;
81666;Laerm;71083;51.796;10.952;2023-07-30T01:35:45;34.40;29.32;44.82;;
81666;Laerm;71083;51.796;10.952;2023-07-30T01:38:11;57.28;29.22;75.04;;
81666;Laerm;71083;51.796;10.952;2023-07-30T01:40:37;29.92;28.79;32.77;;
81666;Laerm;71083;51.796;10.952;2023-07-30T01:43:02;50.54;28.70;67.12;;
81666;Laerm;71083;51.796;10.952;2023-07-30T01:45:28;51.05;28.86;67.76;;
81666;Laerm;71083;51.796;10.952;2023-07-30T01:47:53;30.68;28.99;33.48;;
81666;Laerm;71083;51.796;10.952;2023-07-30T01:50:18;57.25;29.47;71.61;;
81666;Laerm;71083;51.796;10.952;2023-07-30T01:52:44;32.13;29.96;39.37;;
81666;Laerm;71083;51.796;10.952;2023-07-30T01:55:09;55.35;29.88;68.16;;
81666;Laerm;71083;51.796;10.952;2023-07-30T01:57:34;33.28;29.27;44.07;;
81666;Laerm;71083;51.796;10.952;2023-07-30T02:00:00;54.84;29.01;68.45;;
81666;Laerm;71083;51.796;10.952;2023-07-30T02:02:25;32.63;29.73;38.01;;
81666;Laerm;71083;51.796;10.952;2023-07-30T02:04:51;52.41;31.62;68.55;;
81666;Laerm;71083;51.796;10.952;2023-07-30T02:07:16;56.17;32.11;71.02;;
81666;Laerm;71083;51.796;10.952;2023-07-30T02:09:42;52.13;32.29;68.56;;
81666;Laerm;71083;51.796;10.952;2023-07-30T02:12:08;33.92;30.65;39.58;;
81666;Laerm;71083;51.796;10.952;2023-07-30T02:14:33;36.58;31.67;45.90;;
81666;Laerm;71083;51.796;10.952;2023-07-30T02:16:59;52.78;31.04;69.08;;
81666;Laerm;71083;51.796;10.952;2023-07-30T02:19:24;54.22;31.46;72.17;;
81666;Laerm;71083;51.796;10.952;2023-07-30T02:21:49;57.66;31.66;73.50;;
81666;Laerm;71083;51.796;10.952;2023-07-30T02:24:15;52.39;31.13;69.70;;
81666;Laerm;71083;51.796;10.952;2023-07-30T02:26:40;56.27;31.15;73.98;;
81666;Laerm;71083;51.796;10.952;2023-07-30T02:29:05;34.30;31.01;38.83;;
81666;Laerm;71083;51.796;10.952;2023-07-30T02:31:31;55.38;30.68;72.88;;
81666;Laerm;71083;51.796;10.952;2023-07-30T02:33:56;55.27;31.79;71.46;;
81666;Laerm;71083;51.796;10.952;2023-07-30T02:36:22;33.69;30.73;38.33;;
81666;Laerm;71083;51.796;10.952;2023-07-30T02:38:47;34.16;31.28;39.85;;
81666;Laerm;71083;51.796;10.952;2023-07-30T02:41:13;54.30;32.18;67.76;;
81666;Laerm;71083;51.796;10.952;2023-07-30T02:43:38;34.00;31.36;37.29;;
81666;Laerm;71083;51.796;10.952;2023-07-30T02:46:04;34.39;30.31;46.19;;
81666;Laerm;71083;51.796;10.952;2023-07-30T02:48:29;55.50;31.07;73.85;;
81666;Laerm;71083;51.796;10.952;2023-07-30T02:50:55;51.74;30.53;67.28;;
81666;Laerm;71083;51.796;10.952;2023-07-30T02:53:20;55.67;30.74;71.92;;
81666;Laerm;71083;51.796;10.952;2023-07-30T02:55:45;55.72;30.78;70.35;;
81666;Laerm;71083;51.796;10.952;2023-07-30T02:58:10;47.59;30.03;63.39;;
81666;Laerm;71083;51.796;10.952;2023-07-30T03:00:36;59.09;29.49;73.31;;
81666;Laerm;71083;51.796;10.952;2023-07-30T03:03:01;50.94;29.74;66.12;;
81666;Laerm;71083;51.796;10.952;2023-07-30T03:05:27;54.89;29.70;70.37;;
81666;Laerm;71083;51.796;10.952;2023-07-30T03:07:52;60.23;30.37;74.99;;
81666;Laerm;71083;51.796;10.952;2023-07-30T03:10:18;33.98;29.56;46.31;;
81666;Laerm;71083;51.796;10.952;2023-07-30T03:12:43;57.44;30.50;72.68;;
81666;Laerm;71083;51.796;10.952;2023-07-30T03:15:08;55.47;30.82;69.79;;
81666;Laerm;71083;51.796;10.952;2023-07-30T03:17:34;54.10;30.72;69.72;;
81666;Laerm;71083;51.796;10.952;2023-07-30T03:19:59;59.62;31.42;71.20;;
81666;Laerm;71083;51.796;10.952;2023-07-30T03:22:25;58.18;28.81;71.58;;
81666;Laerm;71083;51.796;10.952;2023-07-30T03:24:50;61.98;29.89;72.31;;
81666;Laerm;71083;51.796;10.952;2023-07-30T03:27:15;59.93;30.63;76.29;;
81666;Laerm;71083;51.796;10.952;2023-07-30T03:29:41;62.39;35.92;72.87;;
81666;Laerm;71083;51.796;10.952;2023-07-30T03:32:06;56.53;29.62;72.42;;
81666;Laerm;71083;51.796;10.952;2023-07-30T03:34:32;60.08;31.10;71.90;;
81666;Laerm;71083;51.796;10.952;2023-07-30T03:36:57;62.12;30.73;73.34;;
81666;Laerm;71083;51.796;10.952;2023-07-30T03:39:25;54.26;30.28;68.05;;
81666;Laerm;71083;51.796;10.952;2023-07-30T03:41:50;52.21;30.30;67.57;;
81666;Laerm;71083;51.796;10.952;2023-07-30T03:44:15;60.65;29.96;75.23;;
81666;Laerm;71083;51.796;10.952;2023-07-30T03:46:41;56.67;34.06;71.13;;
81666;Laerm;71083;51.796;10.952;2023-07-30T03:49:06;61.10;35.00;72.70;;
81666;Laerm;71083;51.796;10.952;2023-07-30T03:51:32;61.61;35.44;75.49;;
81666;Laerm;71083;51.796;10.952;2023-07-30T03:53:57;59.45;34.67;73.58;;
81666;Laerm;71083;51.796;10.952;2023-07-30T03:56:23;56.76;34.09;73.85;;
81666;Laerm;71083;51.796;10.952;2023-07-30T03:58:48;57.99;30.16;73.79;;
81666;Laerm;71083;51.796;10.952;2023-07-30T04:01:13;59.99;30.09;73.14;;
81666;Laerm;71083;51.796;10.952;2023-07-30T04:03:39;60.32;30.46;72.78;;
81666;Laerm;71083;51.796;10.952;2023-07-30T04:06:04;56.78;30.51;70.19;;
81666;Laerm;71083;51.796;10.952;2023-07-30T04:08:29;59.95;29.59;72.05;;
81666;Laerm;71083;51.796;10.952;2023-07-30T04:10:54;51.92;30.48;68.66;;
81666;Laerm;71083;51.796;10.952;2023-07-30T04:13:20;57.89;30.72;71.98;;
81666;Laerm;71083;51.796;10.952;2023-07-30T04:15:47;57.59;29.79;74.50;;
81666;Laerm;71083;51.796;10.952;2023-07-30T04:18:12;49.86;31.25;64.58;;
81666;Laerm;71083;51.796;10.952;2023-07-30T04:20:37;56.45;30.83;70.21;;
81666;Laerm;71083;51.796;10.952;2023-07-30T04:23:03;56.03;30.72;71.15;;
81666;Laerm;71083;51.796;10.952;2023-07-30T04:25:28;61.31;34.86;73.02;;
81666;Laerm;71083;51.796;10.952;2023-07-30T04:27:53;59.87;31.05;73.54;;
81666;Laerm;71083;51.796;10.952;2023-07-30T04:30:19;63.21;33.34;74.41;;
81666;Laerm;71083;51.796;10.952;2023-07-30T04:32:44;58.85;31.58;73.95;;
81666;Laerm;71083;51.796;10.952;2023-07-30T04:35:09;57.16;30.37;71.16;;
81666;Laerm;71083;51.796;10.952;2023-07-30T04:37:35;59.89;30.50;77.06;;
81666;Laerm;71083;51.796;10.952;2023-07-30T04:40:00;62.09;33.82;76.15;;
81666;Laerm;71083;51.796;10.952;2023-07-30T04:42:25;56.03;29.34;72.86;;
81666;Laerm;71083;51.796;10.952;2023-07-30T04:44:51;58.94;29.74;73.96;;
81666;Laerm;71083;51.796;10.952;2023-07-30T04:47:16;60.74;30.50;73.12;;
81666;Laerm;71083;51.796;10.952;2023-07-30T04:49:41;51.74;30.28;68.32;;
81666;Laerm;71083;51.796;10.952;2023-07-30T04:52:07;61.66;30.21;77.04;;
81666;Laerm;71083;51.796;10.952;2023-07-30T04:54:33;58.58;29.16;72.77;;
81666;Laerm;71083;51.796;10.952;2023-07-30T04:56:58;55.50;29.38;71.02;;
81666;Laerm;71083;51.796;10.952;2023-07-30T04:59:24;43.58;29.21;59.77;;
81666;Laerm;71083;51.796;10.952;2023-07-30T05:01:49;52.94;29.47;69.76;;
81666;Laerm;71083;51.796;10.952;2023-07-30T05:04:14;58.52;33.79;71.64;;
81666;Laerm;71083;51.796;10.952;2023-07-30T05:06:40;56.76;30.44;71.31;;
81666;Laerm;71083;51.796;10.952;2023-07-30T05:09:06;59.13;31.13;73.60;;
81666;Laerm;71083;51.796;10.952;2023-07-30T05:11:31;61.07;33.03;75.73;;
81666;Laerm;71083;51.796;10.952;2023-07-30T05:13:57;62.41;31.81;75.44;;
81666;Laerm;71083;51.796;10.952;2023-07-30T05:16:22;61.47;31.69;76.07;;
81666;Laerm;71083;51.796;10.952;2023-07-30T05:18:47;55.91;31.38;71.32;;
81666;Laerm;71083;51.796;10.952;2023-07-30T05:21:13;59.04;32.34;74.10;;
81666;Laerm;71083;51.796;10.952;2023-07-30T05:23:38;60.03;30.89;72.61;;
81666;Laerm;71083;51.796;10.952;2023-07-30T05:26:03;62.90;30.14;76.55;;
81666;Laerm;71083;51.796;10.952;2023-07-30T05:28:29;56.41;29.93;69.50;;
81666;Laerm;71083;51.796;10.952;2023-07-30T05:30:54;60.54;33.12;74.24;;
81666;Laerm;71083;51.796;10.952;2023-07-30T05:33:19;58.93;31.91;71.82;;
81666;Laerm;71083;51.796;10.952;2023-07-30T05:35:45;61.30;31.78;77.19;;
81666;Laerm;71083;51.796;10.952;2023-07-30T05:38:10;59.78;36.75;71.62;;
81666;Laerm;71083;51.796;10.952;2023-07-30T05:40:36;59.35;33.71;73.36;;
81666;Laerm;71083;51.796;10.952;2023-07-30T05:43:01;61.50;36.44;73.29;;
81666;Laerm;71083;51.796;10.952;2023-07-30T05:45:27;56.06;33.02;70.20;;
81666;Laerm;71083;51.796;10.952;2023-07-30T05:47:52;61.08;31.73;74.16;;
81666;Laerm;71083;51.796;10.952;2023-07-30T05:50:18;56.84;32.13;70.57;;
81666;Laerm;71083;51.796;10.952;2023-07-30T05:52:43;60.75;34.34;72.38;;
81666;Laerm;71083;51.796;10.952;2023-07-30T05:55:09;60.93;34.83;73.36;;
81666;Laerm;71083;51.796;10.952;2023-07-30T05:57:34;59.43;31.93;71.26;;
81666;Laerm;71083;51.796;10.952;2023-07-30T05:59:59;59.84;34.57;71.63;;
81666;Laerm;71083;51.796;10.952;2023-07-30T06:02:25;60.07;32.81;73.46;;
81666;Laerm;71083;51.796;10.952;2023-07-30T06:04:50;60.16;30.58;72.65;;
81666;Laerm;71083;51.796;10.952;2023-07-30T06:07:15;63.88;36.08;76.53;;
81666;Laerm;71083;51.796;10.952;2023-07-30T06:09:41;61.55;34.08;73.00;;
81666;Laerm;71083;51.796;10.952;2023-07-30T06:12:06;61.38;41.15;74.42;;
81666;Laerm;71083;51.796;10.952;2023-07-30T06:14:32;61.09;32.87;72.79;;
81666;Laerm;71083;51.796;10.952;2023-07-30T06:16:57;61.17;33.64;71.70;;
81666;Laerm;71083;51.796;10.952;2023-07-30T06:19:23;63.92;38.84;74.52;;
81666;Laerm;71083;51.796;10.952;2023-07-30T06:21:48;58.90;35.38;72.93;;
81666;Laerm;71083;51.796;10.952;2023-07-30T06:24:13;60.98;35.34;70.50;;
81666;Laerm;71083;51.796;10.952;2023-07-30T06:26:39;59.46;33.19;71.80;;
81666;Laerm;71083;51.796;10.952;2023-07-30T06:29:04;56.62;30.89;71.03;;
81666;Laerm;71083;51.796;10.952;2023-07-30T06:31:30;62.40;33.41;75.38;;
81666;Laerm;71083;51.796;10.952;2023-07-30T06:33:55;61.18;34.80;72.45;;
81666;Laerm;71083;51.796;10.952;2023-07-30T06:36:20;64.68;34.48;76.68;;
81666;Laerm;71083;51.796;10.952;2023-07-30T06:38:46;67.65;36.27;84.28;;
81666;Laerm;71083;51.796;10.952;2023-07-30T06:41:11;61.31;37.08;74.29;;
81666;Laerm;71083;51.796;10.952;2023-07-30T06:43:36;61.07;35.34;72.67;;
81666;Laerm;71083;51.796;10.952;2023-07-30T06:46:02;64.97;33.80;79.01;;
81666;Laerm;71083;51.796;10.952;2023-07-30T06:48:27;65.58;38.32;74.49;;
81666;Laerm;71083;51.796;10.952;2023-07-30T06:50:52;65.83;44.72;81.03;;
81666;Laerm;71083;51.796;10.952;2023-07-30T06:53:18;62.05;35.98;72.31;;
81666;Laerm;71083;51.796;10.952;2023-07-30T06:55:43;61.53;41.47;75.56;;
81666;Laerm;71083;51.796;10.952;2023-07-30T06:58:09;62.59;38.76;76.04;;
81666;Laerm;71083;51.796;10.952;2023-07-30T07:00:35;64.36;40.73;76.98;;
81666;Laerm;71083;51.796;10.952;2023-07-30T07:03:00;63.65;33.09;74.27;;
81666;Laerm;71083;51.796;10.952;2023-07-30T07:05:25;65.08;38.57;75.09;;
81666;Laerm;71083;51.796;10.952;2023-07-30T07:07:51;73.09;40.83;91.30;;
81666;Laerm;71083;51.796;10.952;2023-07-30T07:10:16;61.10;38.27;70.48;;
81666;Laerm;71083;51.796;10.952;2023-07-30T07:12:42;59.59;37.47;73.25;;
81666;Laerm;71083;51.796;10.952;2023-07-30T07:15:08;64.08;37.24;76.47;;
81666;Laerm;71083;51.796;10.952;2023-07-30T07:17:33;61.89;37.10;70.88;;
81666;Laerm;71083;51.796;10.952;2023-07-30T07:19:59;67.93;36.95;76.42;;
81666;Laerm;71083;51.796;10.952;2023-07-30T07:22:24;64.72;43.85;76.47;;
81666;Laerm;71083;51.796;10.952;2023-07-30T07:24:52;63.72;37.27;75.04;;
81666;Laerm;71083;51.796;10.952;2023-07-30T07:27:18;64.15;36.40;75.02;;
81666;Laerm;71083;51.796;10.952;2023-07-30T07:29:43;64.99;39.44;73.38;;
81666;Laerm;71083;51.796;10.952;2023-07-30T07:32:09;65.63;41.32;79.02;;
81666;Laerm;71083;51.796;10.952;2023-07-30T07:34:34;66.28;38.64;75.56;;
81666;Laerm;71083;51.796;10.952;2023-07-30T07:37:00;65.23;45.29;75.89;;
81666;Laerm;71083;51.796;10.952;2023-07-30T07:39:26;64.96;41.57;74.38;;
81666;Laerm;71083;51.796;10.952;2023-07-30T07:41:51;67.99;42.66;82.94;;
81666;Laerm;71083;51.796;10.952;2023-07-30T07:44:16;66.47;39.60;80.53;;
81666;Laerm;71083;51.796;10.952;2023-07-30T07:46:42;66.63;47.33;75.16;;
81666;Laerm;71083;51.796;10.952;2023-07-30T07:49:07;65.15;45.29;74.28;;
81666;Laerm;71083;51.796;10.952;2023-07-30T07:51:33;65.90;40.31;76.31;;
81666;Laerm;71083;51.796;10.952;2023-07-30T07:53:59;66.54;47.21;73.96;;
81666;Laerm;71083;51.796;10.952;2023-07-30T07:56:24;65.92;50.86;74.57;;
81666;Laerm;71083;51.796;10.952;2023-07-30T07:58:50;71.96;43.26;88.38;;
81666;Laerm;71083;51.796;10.952;2023-07-30T08:01:15;65.37;48.02;79.24;;
81666;Laerm;71083;51.796;10.952;2023-07-30T08:03:40;66.80;48.02;78.70;;
81666;Laerm;71083;51.796;10.952;2023-07-30T08:06:06;66.14;42.81;74.19;;
81666;Laerm;71083;51.796;10.952;2023-07-30T08:08:31;64.40;43.36;73.28;;
81666;Laerm;71083;51.796;10.952;2023-07-30T08:10:56;71.27;39.48;90.29;;
81666;Laerm;71083;51.796;10.952;2023-07-30T08:13:22;66.95;51.82;79.63;;
81666;Laerm;71083;51.796;10.952;2023-07-30T08:15:47;66.42;42.05;74.97;;
81666;Laerm;71083;51.796;10.952;2023-07-30T08:18:13;67.11;51.51;81.96;;
81666;Laerm;71083;51.796;10.952;2023-07-30T08:20:38;66.44;48.89;75.71;;
81666;Laerm;71083;51.796;10.952;2023-07-30T08:23:04;67.38;52.44;76.42;;
81666;Laerm;71083;51.796;10.952;2023-07-30T08:25:29;64.67;42.83;72.48;;
81666;Laerm;71083;51.796;10.952;2023-07-30T08:27:54;68.79;54.09;75.89;;
81666;Laerm;71083;51.796;10.952;2023-07-30T08:30:20;66.37;44.84;74.23;;
81666;Laerm;71083;51.796;10.952;2023-07-30T08:32:45;64.70;45.03;74.67;;
81666;Laerm;71083;51.796;10.952;2023-07-30T08:35:11;68.10;54.14;74.79;;
81666;Laerm;71083;51.796;10.952;2023-07-30T08:37:36;65.19;47.42;75.02;;
81666;Laerm;71083;51.796;10.952;2023-07-30T08:40:01;67.20;51.89;76.59;;
81666;Laerm;71083;51.796;10.952;2023-07-30T08:42:27;65.44;47.70;73.07;;
81666;Laerm;71083;51.796;10.952;2023-07-30T08:44:53;65.93;41.57;74.15;;
81666;Laerm;71083;51.796;10.952;2023-07-30T08:47:18;68.24;46.70;76.81;;
81666;Laerm;71083;51.796;10.952;2023-07-30T08:49:43;75.24;42.82;93.97;;
81666;Laerm;71083;51.796;10.952;2023-07-30T08:52:09;66.33;49.24;78.34;;
81666;Laerm;71083;51.796;10.952;2023-07-30T08:54:36;67.02;47.69;77.68;;
81666;Laerm;71083;51.796;10.952;2023-07-30T08:57:02;68.78;48.71;82.23;;
81666;Laerm;71083;51.796;10.952;2023-07-30T08:59:30;65.78;47.09;74.17;;
81666;Laerm;71083;51.796;10.952;2023-07-30T09:01:56;67.50;46.76;76.09;;
81666;Laerm;71083;51.796;10.952;2023-07-30T09:04:23;67.50;49.93;77.09;;
81666;Laerm;71083;51.796;10.952;2023-07-30T09:06:49;68.23;46.47;75.06;;
81666;Laerm;71083;51.796;10.952;2023-07-30T09:09:15;66.62;46.75;75.54;;
81666;Laerm;71083;51.796;10.952;2023-07-30T09:11:40;68.89;45.42;83.60;;
81666;Laerm;71083;51.796;10.952;2023-07-30T09:14:06;66.66;46.58;74.66;;
81666;Laerm;71083;51.796;10.952;2023-07-30T09:16:31;66.51;40.87;75.52;;
81666;Laerm;71083;51.796;10.952;2023-07-30T09:18:56;66.29;39.95;75.07;;
81666;Laerm;71083;51.796;10.952;2023-07-30T09:21:32;67.60;51.33;74.04;;
81666;Laerm;71083;51.796;10.952;2023-07-30T09:23:57;66.94;48.33;77.57;;
81666;Laerm;71083;51.796;10.952;2023-07-30T09:26:30;67.55;43.09;78.54;;
81666;Laerm;71083;51.796;10.952;2023-07-30T09:28:56;68.71;48.32;76.70;;
81666;Laerm;71083;51.796;10.952;2023-07-30T09:31:21;65.95;47.89;74.19;;
81666;Laerm;71083;51.796;10.952;2023-07-30T09:33:47;67.96;51.11;85.01;;
81666;Laerm;71083;51.796;10.952;2023-07-30T09:36:12;67.12;39.59;75.74;;
81666;Laerm;71083;51.796;10.952;2023-07-30T09:38:47;67.11;43.15;73.46;;
81666;Laerm;71083;51.796;10.952;2023-07-30T09:41:14;68.57;38.61;77.46;;
81666;Laerm;71083;51.796;10.952;2023-07-30T09:43:40;67.29;43.44;73.76;;
81666;Laerm;71083;51.796;10.952;2023-07-30T09:46:06;65.20;43.11;72.99;;
81666;Laerm;71083;51.796;10.952;2023-07-30T09:48:32;68.86;42.52;84.96;;
81666;Laerm;71083;51.796;10.952;2023-07-30T09:51:01;66.81;45.79;73.81;;
81666;Laerm;71083;51.796;10.952;2023-07-30T09:53:31;68.89;45.43;75.65;;
81666;Laerm;71083;51.796;10.952;2023-07-30T09:56:02;66.21;48.66;74.35;;
81666;Laerm;71083;51.796;10.952;2023-07-30T09:58:29;64.60;47.31;73.29;;
81666;Laerm;71083;51.796;10.952;2023-07-30T10:00:54;71.32;41.92;88.37;;
81666;Laerm;71083;51.796;10.952;2023-07-30T10:03:20;67.23;45.81;73.20;;
81666;Laerm;71083;51.796;10.952;2023-07-30T10:05:47;63.58;48.02;72.35;;
81666;Laerm;71083;51.796;10.952;2023-07-30T10:08:15;69.70;46.12;74.94;;
81666;Laerm;71083;51.796;10.952;2023-07-30T10:10:42;66.24;44.77;75.91;;
81666;Laerm;71083;51.796;10.952;2023-07-30T10:13:08;67.07;39.12;74.22;;
81666;Laerm;71083;51.796;10.952;2023-07-30T10:15:35;68.12;45.86;75.95;;
81666;Laerm;71083;51.796;10.952;2023-07-30T10:18:02;68.35;41.86;77.24;;
81666;Laerm;71083;51.796;10.952;2023-07-30T10:20:28;69.26;46.27;82.62;;
81666;Laerm;71083;51.796;10.952;2023-07-30T10:22:55;69.68;50.96;86.76;;
81666;Laerm;71083;51.796;10.952;2023-07-30T10:25:21;66.72;40.70;77.82;;
81666;Laerm;71083;51.796;10.952;2023-07-30T10:27:49;68.10;49.51;82.48;;
81666;Laerm;71083;51.796;10.952;2023-07-30T10:30:15;65.07;48.54;74.71;;
81666;Laerm;71083;51.796;10.952;2023-07-30T10:32:41;68.48;47.17;88.67;;
81666;Laerm;71083;51.796;10.952;2023-07-30T10:35:07;70.21;41.32;84.64;;
81666;Laerm;71083;51.796;10.952;2023-07-30T10:37:32;68.00;41.86;75.73;;
81666;Laerm;71083;51.796;10.952;2023-07-30T10:39:58;66.29;42.29;74.85;;
81666;Laerm;71083;51.796;10.952;2023-07-30T10:42:23;65.48;38.45;74.78;;
81666;Laerm;71083;51.796;10.952;2023-07-30T10:44:48;67.84;41.61;77.04;;
81666;Laerm;71083;51.796;10.952;2023-07-30T10:47:14;68.10;45.85;77.14;;
81666;Laerm;71083;51.796;10.952;2023-07-30T10:49:39;66.99;41.78;74.77;;
81666;Laerm;71083;51.796;10.952;2023-07-30T10:52:09;71.42;49.40;89.48;;
81666;Laerm;71083;51.796;10.952;2023-07-30T10:54:34;67.09;47.07;73.80;;
81666;Laerm;71083;51.796;10.952;2023-07-30T10:57:00;65.99;42.11;77.87;;
81666;Laerm;71083;51.796;10.952;2023-07-30T10:59:25;66.90;42.38;78.64;;
81666;Laerm;71083;51.796;10.952;2023-07-30T11:01:52;67.41;46.41;78.55;;
81666;Laerm;71083;51.796;10.952;2023-07-30T11:04:18;66.12;40.80;74.48;;
81666;Laerm;71083;51.796;10.952;2023-07-30T11:06:46;66.24;40.09;75.12;;
81666;Laerm;71083;51.796;10.952;2023-07-30T11:09:22;66.84;52.42;74.17;;
81666;Laerm;71083;51.796;10.952;2023-07-30T11:11:48;65.71;49.82;73.44;;
81666;Laerm;71083;51.796;10.952;2023-07-30T11:14:14;67.66;42.13;74.60;;
81666;Laerm;71083;51.796;10.952;2023-07-30T11:16:46;68.83;53.70;78.78;;
81666;Laerm;71083;51.796;10.952;2023-07-30T11:19:12;68.44;44.32;79.20;;
81666;Laerm;71083;51.796;10.952;2023-07-30T11:21:43;66.99;43.01;75.06;;
81666;Laerm;71083;51.796;10.952;2023-07-30T11:24:09;66.11;41.52;75.66;;
81666;Laerm;71083;51.796;10.952;2023-07-30T11:26:34;66.29;49.27;73.44;;
81666;Laerm;71083;51.796;10.952;2023-07-30T11:29:00;68.39;42.71;75.96;;
81666;Laerm;71083;51.796;10.952;2023-07-30T11:31:25;64.56;45.64;73.90;;
81666;Laerm;71083;51.796;10.952;2023-07-30T11:33:52;67.79;41.59;77.52;;
81666;Laerm;71083;51.796;10.952;2023-07-30T11:36:18;66.19;46.73;74.74;;
81666;Laerm;71083;51.796;10.952;2023-07-30T11:38:44;67.07;38.94;79.27;;
81666;Laerm;71083;51.796;10.952;2023-07-30T11:41:10;66.64;48.55;74.24;;
81666;Laerm;71083;51.796;10.952;2023-07-30T11:43:39;66.54;47.62;73.91;;
81666;Laerm;71083;51.796;10.952;2023-07-30T11:46:14;66.41;45.46;75.40;;
81666;Laerm;71083;51.796;10.952;2023-07-30T11:48:41;69.48;49.00;81.10;;
81666;Laerm;71083;51.796;10.952;2023-07-30T11:51:07;66.40;42.87;76.28;;
81666;Laerm;71083;51.796;10.952;2023-07-30T11:53:43;64.81;41.74;74.27;;
81666;Laerm;71083;51.796;10.952;2023-07-30T11:56:14;68.35;48.38;74.98;;
81666;Laerm;71083;51.796;10.952;2023-07-30T11:58:41;68.44;45.01;79.04;;
81666;Laerm;71083;51.796;10.952;2023-07-30T12:01:06;69.41;52.66;76.84;;
81666;Laerm;71083;51.796;10.952;2023-07-30T12:03:31;67.46;46.91;76.51;;
81666;Laerm;71083;51.796;10.952;2023-07-30T12:05:57;66.19;47.17;74.76;;
81666;Laerm;71083;51.796;10.952;2023-07-30T12:08:25;66.79;45.71;74.93;;
81666;Laerm;71083;51.796;10.952;2023-07-30T12:10:52;68.39;42.63;84.04;;
81666;Laerm;71083;51.796;10.952;2023-07-30T12:13:19;68.56;46.49;81.47;;
81666;Laerm;71083;51.796;10.952;2023-07-30T12:15:50;67.34;42.71;74.75;;
81666;Laerm;71083;51.796;10.952;2023-07-30T12:18:16;67.11;51.27;75.43;;
81666;Laerm;71083;51.796;10.952;2023-07-30T12:20:41;67.01;38.60;75.34;;
81666;Laerm;71083;51.796;10.952;2023-07-30T12:23:07;70.62;43.93;83.13;;
81666;Laerm;71083;51.796;10.952;2023-07-30T12:25:32;67.36;47.70;75.39;;
81666;Laerm;71083;51.796;10.952;2023-07-30T12:27:57;67.05;44.10;74.83;;
81666;Laerm;71083;51.796;10.952;2023-07-30T12:30:23;68.59;43.33;77.26;;
81666;Laerm;71083;51.796;10.952;2023-07-30T12:32:48;66.47;44.14;75.18;;
81666;Laerm;71083;51.796;10.952;2023-07-30T12:35:14;68.43;50.95;74.44;;
81666;Laerm;71083;51.796;10.952;2023-07-30T12:37:39;68.97;49.81;75.07;;
81666;Laerm;71083;51.796;10.952;2023-07-30T12:40:05;67.87;51.57;75.66;;
81666;Laerm;71083;51.796;10.952;2023-07-30T12:42:30;68.28;45.99;75.74;;
81666;Laerm;71083;51.796;10.952;2023-07-30T12:44:57;67.29;47.99;75.79;;
81666;Laerm;71083;51.796;10.952;2023-07-30T12:47:22;69.02;55.76;76.09;;
81666;Laerm;71083;51.796;10.952;2023-07-30T12:49:48;67.62;50.48;75.50;;
81666;Laerm;71083;51.796;10.952;2023-07-30T12:52:13;66.81;44.11;77.76;;
81666;Laerm;71083;51.796;10.952;2023-07-30T12:54:38;69.31;47.64;76.03;;
81666;Laerm;71083;51.796;10.952;2023-07-30T12:57:05;66.93;41.64;74.43;;
81666;Laerm;71083;51.796;10.952;2023-07-30T12:59:30;68.19;49.94;75.87;;
81666;Laerm;71083;51.796;10.952;2023-07-30T13:01:57;66.14;44.08;75.45;;
81666;Laerm;71083;51.796;10.952;2023-07-30T13:04:23;67.64;50.45;75.84;;
81666;Laerm;71083;51.796;10.952;2023-07-30T13:06:49;70.91;59.24;82.60;;
81666;Laerm;71083;51.796;10.952;2023-07-30T13:09:14;68.82;42.13;78.80;;
81666;Laerm;71083;51.796;10.952;2023-07-30T13:11:40;68.43;44.03;76.22;;
81666;Laerm;71083;51.796;10.952;2023-07-30T13:14:05;68.71;46.28;83.15;;
81666;Laerm;71083;51.796;10.952;2023-07-30T13:16:30;66.84;48.23;74.90;;
81666;Laerm;71083;51.796;10.952;2023-07-30T13:18:57;67.70;46.10;74.86;;
81666;Laerm;71083;51.796;10.952;2023-07-30T13:21:22;65.75;41.49;73.27;;
81666;Laerm;71083;51.796;10.952;2023-07-30T13:23:48;66.26;41.39;75.74;;